Date,TemperatureHighF,TemperatureAvgF,TemperatureLowF,DewpointHighF,DewpointAvgF,DewpointLowF,HumidityHigh,HumidityAvg,HumidityLow,PressureMaxIn,PressureMinIn,WindSpeedMaxMPH,WindSpeedAvgMPH,GustSpeedMaxMPH,PrecipitationSumIn
2013-1-1,46.4,43.8,38.0,0.0,0.0,0.0,0,0,100,29.81,29.65,0,0,0,0.50
2013-1-2,45.7,39.8,33.3,0.0,0.0,0.0,0,0,100,29.90,29.64,0,0,0,0.31
2013-1-3,40.9,32.5,23.9,0.0,0.0,0.0,0,0,100,29.97,29.85,0,0,0,0.00
2013-1-4,47.2,33.7,20.3,0.0,0.0,0.0,0,0,100,30.02,29.91,0,0,0,0.00
2013-1-5,50.0,38.0,21.2,0.0,0.0,0.0,0,0,100,30.09,29.91,0,0,0,0.00
2013-1-6,52.2,41.0,32.0,0.0,0.0,0.0,0,0,100,29.92,29.75,0,0,0,0.04
2013-1-7,49.9,35.9,25.4,0.0,0.0,0.0,0,0,100,30.11,29.88,0,0,0,0.00
2013-1-8,54.9,36.4,23.2,0.0,0.0,0.0,0,0,100,30.12,30.00,0,0,0,0.00
2013-1-9,57.2,51.3,44.3,0.0,0.0,0.0,0,0,100,30.20,30.14,0,0,0,0.00
2013-1-10,61.4,50.4,0.0,0.0,0.0,0.0,0,0,100,30.30,30.17,0,0,0,0.00
2013-1-11,43.6,38.3,0.0,0.0,0.0,0.0,0,0,100,30.17,29.93,0,0,0,0.09
2013-1-12,63.7,53.0,0.0,0.0,0.0,0.0,0,0,100,29.95,29.87,0,0,0,0.02
2013-1-13,67.5,60.2,54.0,0.0,0.0,0.0,0,0,100,29.91,29.83,0,0,0,0.02
2013-1-14,61.9,59.3,50.8,0.0,0.0,0.0,0,0,100,29.96,29.85,0,0,0,1.69
2013-1-15,50.6,32.5,0.0,0.0,0.0,0.0,0,0,100,30.00,29.85,0,0,0,0.46
2013-1-16,47.7,38.5,0.0,0.0,0.0,0.0,0,0,100,29.85,29.72,0,0,0,1.14
2013-1-17,47.9,27.8,0.0,0.0,0.0,0.0,0,0,100,29.94,29.68,0,0,0,3.05
2013-1-18,37.6,29.1,22.9,0.0,0.0,0.0,0,0,100,30.27,29.92,0,0,0,0.52
2013-1-19,47.7,32.6,23.9,0.0,0.0,0.0,0,0,100,30.24,29.90,0,0,0,0.02
2013-1-20,57.8,43.3,30.6,0.0,0.0,0.0,0,0,100,29.91,29.78,0,0,0,0.00
2013-1-21,55.1,40.1,24.5,0.0,0.0,0.0,0,0,100,29.85,29.65,0,0,0,0.00
2013-1-22,37.1,29.5,23.2,0.0,0.0,0.0,0,0,100,30.02,29.74,0,0,0,0.00
2013-1-23,40.9,28.3,15.7,0.0,0.0,0.0,0,0,100,30.10,29.79,0,0,0,0.00
2013-1-24,36.4,29.2,22.3,0.0,0.0,0.0,0,0,100,30.24,29.72,0,0,0,0.00
2013-1-25,24.1,20.7,17.8,0.0,0.0,0.0,0,0,100,30.25,29.85,0,0,0,0.00
2013-1-26,35.3,26.4,19.8,0.0,0.0,0.0,0,0,100,30.15,29.83,0,0,0,0.19
2013-1-27,41.8,30.4,18.9,0.0,0.0,0.0,0,0,100,30.33,30.14,0,0,0,0.00
2013-1-28,43.6,36.4,28.8,0.0,0.0,0.0,0,0,100,30.22,29.98,0,0,0,0.09
2013-1-29,65.0,51.8,0.0,0.0,0.0,0.0,0,0,100,30.00,29.82,0,0,0,0.00
2013-1-30,66.6,62.1,0.0,0.0,0.0,0.0,0,0,100,29.83,29.20,0,0,0,1.97
2013-1-31,55.4,40.3,0.0,0.0,0.0,0.0,0,0,100,29.76,29.23,0,0,0,0.07
2013-2-1,39.1,30.7,19.8,0.0,0.0,0.0,0,0,100,30.12,29.62,0,0,0,0.00
2013-2-2,39.6,29.6,15.5,0.0,0.0,0.0,0,0,100,30.13,29.79,0,0,0,0.00
2013-2-3,47.0,36.6,27.7,0.0,0.0,0.0,0,0,100,29.79,29.62,0,0,0,0.01
2013-2-4,47.9,36.8,22.1,0.0,0.0,0.0,0,0,100,29.90,29.75,0,0,0,0.00
2013-2-5,58.0,43.9,32.8,0.0,0.0,0.0,0,0,100,29.75,29.66,0,0,0,0.00
2013-2-6,56.3,43.6,28.8,0.0,0.0,0.0,0,0,100,30.04,29.75,0,0,0,0.00
2013-2-7,41.2,31.2,0.0,0.0,0.0,0.0,0,0,100,30.10,29.81,0,0,0,1.65
2013-2-8,54.9,30.6,0.0,0.0,0.0,0.0,0,0,100,29.85,29.62,0,0,0,0.33
2013-2-9,51.1,39.9,29.3,0.0,0.0,0.0,0,0,100,30.11,29.83,0,0,0,0.00
2013-2-10,52.6,40.2,28.6,0.0,0.0,0.0,0,0,100,30.22,29.94,0,0,0,0.17
2013-2-11,54.4,43.7,0.0,0.0,0.0,0.0,0,0,100,29.94,29.72,0,0,0,0.19
2013-2-12,57.1,47.8,35.3,0.0,0.0,0.0,0,0,100,29.87,29.70,0,0,0,0.00
2013-2-13,46.3,40.8,0.0,0.0,0.0,0.0,0,0,100,29.73,29.42,0,0,0,0.61
2013-2-14,51.7,38.0,24.8,0.0,0.0,0.0,0,0,100,29.83,29.62,0,0,0,0.00
2013-2-15,58.7,43.1,0.0,0.0,0.0,0.0,0,0,100,29.86,29.70,0,0,0,0.00
2013-2-16,38.2,31.8,28.4,0.0,0.0,0.0,0,0,100,29.76,29.61,0,0,0,0.11
2013-2-17,36.4,28.1,21.6,0.0,0.0,0.0,0,0,100,30.01,29.71,0,0,0,0.00
2013-2-18,52.0,36.2,19.1,0.0,0.0,0.0,0,0,100,30.13,29.95,0,0,0,0.00
2013-2-19,44.3,38.0,31.3,0.0,0.0,0.0,0,0,100,29.97,29.64,0,0,0,0.46
2013-2-20,51.5,39.3,25.9,0.0,0.0,0.0,0,0,100,29.91,29.76,0,0,0,0.02
2013-2-21,52.4,39.7,23.4,0.0,0.0,0.0,0,0,100,30.03,29.88,0,0,0,0.00
2013-2-22,41.9,31.7,29.2,0.0,0.0,0.0,0,0,100,30.09,29.89,0,0,0,0.63
2013-2-23,43.4,33.2,0.0,0.0,0.0,0.0,0,0,100,29.91,29.60,0,0,0,0.43
2013-2-24,58.9,45.8,0.0,0.0,0.0,0.0,0,0,100,29.82,29.59,0,0,0,0.00
2013-2-25,43.7,37.2,31.7,0.0,0.0,0.0,0,0,100,29.98,29.81,0,0,0,0.00
2013-2-26,37.1,29.4,0.0,0.0,0.0,0.0,0,0,100,29.91,29.38,0,0,0,1.73
2013-2-27,54.4,37.9,0.0,0.0,0.0,0.0,0,0,100,29.57,29.41,0,0,0,0.00
2013-2-28,46.4,38.8,27.2,0.0,0.0,0.0,0,0,100,29.65,29.48,0,0,0,0.00
2013-3-1,44.8,39.2,33.7,0.0,0.0,0.0,0,0,100,29.70,29.61,0,0,0,0.00
2013-3-2,45.7,35.4,24.3,0.0,0.0,0.0,0,0,100,29.70,29.59,0,0,0,0.00
2013-3-3,41.6,33.7,27.0,0.0,0.0,0.0,0,0,100,29.76,29.64,0,0,0,0.00
2013-3-4,51.5,36.8,24.8,0.0,0.0,0.0,0,0,100,29.88,29.74,0,0,0,0.00
2013-3-5,50.4,39.8,0.0,0.0,0.0,0.0,0,0,100,29.83,29.37,0,0,0,0.67
2013-3-6,46.8,36.1,27.7,0.0,0.0,0.0,0,0,100,29.86,29.36,0,0,0,0.30
2013-3-7,50.4,37.8,25.7,0.0,0.0,0.0,0,0,100,30.03,29.85,0,0,0,0.00
2013-3-8,53.3,38.7,20.5,0.0,0.0,0.0,0,0,100,30.08,29.96,0,0,0,0.00
2013-3-9,61.0,44.4,24.8,0.0,0.0,0.0,0,0,100,30.12,30.01,0,0,0,0.00
2013-3-10,66.1,52.5,37.1,0.0,0.0,0.0,0,0,100,30.08,29.96,0,0,0,0.00
2013-3-11,65.5,52.5,0.0,0.0,0.0,0.0,0,0,100,29.98,29.67,0,0,0,0.02
2013-3-12,61.9,52.7,0.0,0.0,0.0,0.0,0,0,100,29.76,29.53,0,0,0,1.76
2013-3-13,53.1,41.6,29.5,0.0,0.0,0.0,0,0,100,29.93,29.75,0,0,0,0.00
2013-3-14,49.9,38.2,28.4,0.0,0.0,0.0,0,0,100,30.02,29.90,0,0,0,0.00
2013-3-15,61.4,46.2,28.8,0.0,0.0,0.0,0,0,100,29.95,29.67,0,0,0,0.00
2013-3-16,76.0,61.2,49.1,0.0,0.0,0.0,0,0,100,29.67,29.45,0,0,0,0.02
2013-3-17,52.6,45.1,35.8,0.0,0.0,0.0,0,0,100,29.94,29.64,0,0,0,0.00
2013-3-18,37.4,34.9,33.1,0.0,0.0,0.0,0,0,100,29.95,29.62,0,0,0,0.52
2013-3-19,63.0,45.7,32.4,0.0,0.0,0.0,0,0,100,29.76,29.60,0,0,0,0.00
2013-4-5,64.3,54.9,44.5,0.0,0.0,0.0,0,0,100,29.82,29.68,0,0,0,0.00
2013-4-6,65.7,51.8,35.6,0.0,0.0,0.0,0,0,100,30.04,29.82,0,0,0,0.00
2013-4-7,70.2,55.3,35.8,0.0,0.0,0.0,0,0,100,30.03,29.88,0,0,0,0.00
2013-4-8,77.0,62.5,48.6,0.0,0.0,0.0,0,0,100,29.95,29.84,0,0,0,0.00
2013-4-9,83.3,72.9,52.9,0.0,0.0,0.0,0,0,100,29.98,29.86,0,0,0,0.00
2013-4-10,85.0,71.0,56.9,0.0,0.0,0.0,0,0,100,29.90,29.75,0,0,0,0.00
2013-4-11,80.8,67.2,56.2,0.0,0.0,0.0,0,0,100,29.78,29.57,0,0,0,0.00
2013-4-12,81.0,68.6,0.0,0.0,0.0,0.0,0,0,100,29.60,29.41,0,0,0,1.99
2013-4-13,74.9,60.0,39.4,0.0,0.0,0.0,0,0,100,29.81,29.60,0,0,0,0.00
2013-4-14,80.3,64.2,46.3,0.0,0.0,0.0,0,0,100,29.89,29.80,0,0,0,0.00
2013-4-15,65.2,57.0,52.2,0.0,0.0,0.0,0,0,100,30.00,29.82,0,0,0,0.39
2013-4-16,79.4,63.9,52.0,0.0,0.0,0.0,0,0,100,30.09,29.98,0,0,0,0.00
2013-4-17,82.8,66.9,57.6,0.0,0.0,0.0,0,0,100,30.01,29.91,0,0,0,0.00
2013-4-18,80.3,67.5,0.0,0.0,0.0,0.0,0,0,100,29.98,29.81,0,0,0,0.00
2013-4-19,73.1,64.5,0.0,0.0,0.0,0.0,0,0,100,29.81,29.52,0,0,0,0.00
2013-4-20,65.3,51.7,37.6,0.0,0.0,0.0,0,0,100,30.05,29.66,0,0,0,0.00
2013-4-21,60.1,49.9,38.2,0.0,0.0,0.0,0,0,100,30.26,30.05,0,0,0,0.00
2013-4-22,61.7,48.9,31.9,0.0,0.0,0.0,0,0,100,30.23,30.04,0,0,0,0.00
2013-4-23,72.7,55.1,41.8,0.0,0.0,0.0,0,0,100,30.06,29.89,0,0,0,0.00
2013-4-24,71.6,59.3,49.3,0.0,0.0,0.0,0,0,100,29.91,29.76,0,0,0,0.00
2013-4-25,74.9,57.7,44.6,0.0,0.0,0.0,0,0,100,30.07,29.80,0,0,0,0.00
2013-4-26,72.7,57.3,38.0,0.0,0.0,0.0,0,0,100,30.22,30.07,0,0,0,0.00
2013-4-27,71.5,58.5,51.1,0.0,0.0,0.0,0,0,100,30.14,30.04,0,0,0,0.00
2013-4-28,54.9,52.3,0.0,0.0,0.0,0.0,0,0,100,30.04,29.84,0,0,0,0.00
2013-4-29,72.0,58.4,52.2,0.0,0.0,0.0,0,0,100,29.85,29.76,0,0,0,0.00
2013-4-30,68.0,58.3,52.4,0.0,0.0,0.0,0,0,100,29.99,29.81,0,0,0,0.07
2013-5-1,63.0,56.3,0.0,0.0,0.0,0.0,0,0,100,30.11,29.97,0,0,0,0.00
2013-5-2,61.6,55.1,50.0,0.0,0.0,0.0,0,0,100,30.12,30.05,0,0,0,0.00
2013-5-3,67.5,54.2,46.1,0.0,0.0,0.0,0,0,100,30.05,29.95,0,0,0,0.00
2013-5-4,59.0,49.3,42.8,0.0,0.0,0.0,0,0,100,29.98,29.86,0,0,0,0.00
2013-5-5,53.3,49.1,45.2,0.0,0.0,0.0,0,0,100,29.89,29.75,0,0,0,0.02
2013-5-6,66.4,58.2,52.7,0.0,0.0,0.0,0,0,100,29.76,29.62,0,0,0,0.00
2013-5-7,67.7,54.0,0.0,0.0,0.0,0.0,0,0,100,29.74,29.65,0,0,0,0.19
2013-5-8,66.1,47.5,0.0,0.0,0.0,0.0,0,0,100,29.80,29.71,0,0,0,0.39
2013-5-9,83.0,58.9,0.0,0.0,0.0,0.0,0,0,100,29.87,29.78,0,0,0,0.02
2013-5-10,83.5,68.1,51.3,0.0,0.0,0.0,0,0,100,29.87,29.72,0,0,0,0.00
2013-5-11,79.9,66.4,59.0,0.0,0.0,0.0,0,0,100,29.75,29.60,0,0,0,0.61
2013-5-12,69.3,59.8,47.2,0.0,0.0,0.0,0,0,100,29.83,29.63,0,0,0,0.04
2013-5-13,67.3,52.2,35.3,0.0,0.0,0.0,0,0,100,29.97,29.83,0,0,0,0.00
2013-5-14,72.7,56.0,33.3,0.0,0.0,0.0,0,0,100,30.04,29.84,0,0,0,0.00
2013-5-15,88.4,70.2,52.4,0.0,0.0,0.0,0,0,100,29.85,29.71,0,0,0,0.00
2013-5-16,84.8,70.8,54.9,0.0,0.0,0.0,0,0,100,29.80,29.72,0,0,0,0.00
2013-5-17,90.2,72.6,55.4,0.0,0.0,0.0,0,0,100,29.90,29.79,0,0,0,0.00
2013-5-18,74.7,65.9,59.9,0.0,0.0,0.0,0,0,100,29.98,29.88,0,0,0,0.22
2013-5-19,77.4,66.9,0.0,0.0,0.0,0.0,0,0,100,29.94,29.85,0,0,0,0.06
2013-5-20,79.9,69.2,64.3,0.0,0.0,0.0,0,0,100,29.92,29.83,0,0,0,1.06
2013-5-21,86.4,73.1,64.4,0.0,0.0,0.0,0,0,100,29.86,29.74,0,0,0,0.02
2013-5-22,82.6,71.9,63.4,0.0,0.0,0.0,0,0,100,29.83,29.71,0,0,0,1.48
2013-5-23,79.0,61.6,0.0,0.0,0.0,0.0,0,0,100,29.77,29.63,0,0,0,0.47
2013-5-24,70.9,61.4,47.9,0.0,0.0,0.0,0,0,100,30.00,29.65,0,0,0,0.03
2013-5-25,76.5,57.7,37.8,0.0,0.0,0.0,0,0,100,30.07,29.93,0,0,0,0.00
2013-5-26,82.3,62.9,49.9,0.0,0.0,0.0,0,0,100,30.07,29.96,0,0,0,0.00
2013-5-27,84.2,65.4,47.3,0.0,0.0,0.0,0,0,100,30.08,29.94,0,0,0,0.00
2013-5-28,86.4,70.6,59.8,0.0,0.0,0.0,0,0,100,30.03,29.94,0,0,0,0.00
2013-5-29,88.7,72.2,59.6,0.0,0.0,0.0,0,0,100,30.04,29.96,0,0,0,0.00
2013-5-30,90.0,72.9,61.7,0.0,0.0,0.0,0,0,100,30.08,29.98,0,0,0,0.00
2013-5-31,89.1,73.3,0.0,0.0,0.0,0.0,0,0,100,30.03,29.91,0,0,0,0.00
2013-6-1,90.0,75.0,0.0,0.0,0.0,0.0,0,0,100,29.93,29.82,0,0,0,0.00
2013-6-2,79.7,70.2,65.5,0.0,0.0,0.0,0,0,100,29.85,29.72,0,0,0,1.34
2013-6-3,81.9,70.2,64.6,0.0,0.0,0.0,0,0,100,29.78,29.66,0,0,0,1.82
2013-6-4,78.3,66.5,60.7,0.0,0.0,0.0,0,0,100,29.91,29.77,0,0,0,0.02
2013-6-5,78.8,66.7,59.6,0.0,0.0,0.0,0,0,100,29.94,29.82,0,0,0,0.04
2013-6-6,72.4,67.3,62.6,0.0,0.0,0.0,0,0,100,29.83,29.62,0,0,0,2.21
2013-6-7,76.3,68.1,65.7,0.0,0.0,0.0,0,0,100,29.65,29.44,0,0,0,0.93
2013-6-8,83.5,70.7,0.0,0.0,0.0,0.0,0,0,100,29.90,29.63,0,0,0,1.04
2013-6-9,87.5,73.6,62.6,0.0,0.0,0.0,0,0,100,29.96,29.86,0,0,0,0.03
2013-6-10,81.0,71.8,66.6,0.0,0.0,0.0,0,0,100,29.90,29.67,0,0,0,0.84
2013-6-11,90.2,72.8,65.5,0.0,0.0,0.0,0,0,100,29.79,29.71,0,0,0,0.04
2013-6-12,95.2,76.1,60.1,0.0,0.0,0.0,0,0,100,29.80,29.69,0,0,0,0.00
2013-6-13,93.1,75.6,65.3,0.0,0.0,0.0,0,0,100,29.70,29.44,0,0,0,0.28
2013-6-14,87.1,69.7,56.0,0.0,0.0,0.0,0,0,100,29.84,29.58,0,0,0,0.00
2013-6-15,87.7,70.7,53.8,0.0,0.0,0.0,0,0,100,29.94,29.84,0,0,0,0.00
2013-6-16,87.5,72.8,62.3,0.0,0.0,0.0,0,0,100,29.93,29.82,0,0,0,0.00
2013-6-17,86.8,74.1,67.3,0.0,0.0,0.0,0,0,100,29.85,29.75,0,0,0,0.28
2013-6-18,80.8,70.9,66.6,0.0,0.0,0.0,0,0,100,29.78,29.61,0,0,0,0.18
2013-6-19,85.3,71.9,60.1,0.0,0.0,0.0,0,0,100,29.93,29.71,0,0,0,0.02
2013-6-20,85.5,70.1,0.0,0.0,0.0,0.0,0,0,100,30.06,29.93,0,0,0,0.00
2013-6-21,85.1,71.6,56.5,0.0,0.0,0.0,0,0,100,30.08,30.00,0,0,0,0.00
2013-6-22,85.3,70.2,57.6,0.0,0.0,0.0,0,0,100,30.04,29.93,0,0,0,0.00
2013-6-23,91.8,74.7,0.0,0.0,0.0,0.0,0,0,100,30.02,29.93,0,0,0,0.00
2013-6-24,87.3,75.7,67.7,0.0,0.0,0.0,0,0,100,30.02,29.90,0,0,0,0.11
2013-6-25,94.3,76.0,0.0,0.0,0.0,0.0,0,0,100,29.94,29.81,0,0,0,0.10
2013-6-26,92.3,73.6,65.5,0.0,0.0,0.0,0,0,100,29.85,29.72,0,0,0,1.39
2013-6-27,85.0,74.7,0.0,0.0,0.0,0.0,0,0,100,29.76,29.54,0,0,0,0.00
2013-6-28,88.9,77.0,67.7,0.0,0.0,0.0,0,0,100,29.59,29.42,0,0,0,0.41
2013-6-29,87.8,75.4,0.0,0.0,0.0,0.0,0,0,100,29.54,29.43,0,0,0,0.03
2013-6-30,88.0,74.5,67.1,0.0,0.0,0.0,0,0,100,29.67,29.52,0,0,0,0.38
2013-7-1,85.7,74.2,66.8,0.0,0.0,0.0,0,0,100,29.80,29.65,0,0,0,0.20
2013-7-2,79.6,71.6,0.0,0.0,0.0,0.0,0,0,100,29.98,29.79,0,0,0,0.24
2013-7-3,84.2,73.5,69.5,0.0,0.0,0.0,0,0,100,30.04,29.94,0,0,0,2.01
2013-7-4,87.8,75.8,0.0,0.0,0.0,0.0,0,0,100,30.06,29.98,0,0,0,0.20
2013-7-5,87.1,76.2,69.7,0.0,0.0,0.0,0,0,100,30.07,29.99,0,0,0,0.06
2013-7-6,90.4,76.5,68.0,0.0,0.0,0.0,0,0,100,30.06,29.93,0,0,0,0.28
2013-7-7,85.9,75.7,68.9,0.0,0.0,0.0,0,0,100,30.00,29.88,0,0,0,0.61
2013-7-8,86.0,73.1,68.0,0.0,0.0,0.0,0,0,100,30.00,29.93,0,0,0,0.32
2013-7-14,74.2,72.7,71.3,0.0,0.0,0.0,0,0,100,30.11,30.08,0,0,0,0.00
2013-7-15,94.7,79.0,65.2,0.0,0.0,0.0,0,0,100,30.15,30.07,0,0,0,0.00
2013-7-16,100.6,80.4,0.0,0.0,0.0,0.0,0,0,100,30.11,30.02,0,0,0,0.02
2013-7-17,98.3,81.0,0.0,0.0,0.0,0.0,0,0,100,30.06,29.95,0,0,0,0.00
2013-7-18,98.6,83.7,0.0,0.0,0.0,0.0,0,0,100,29.97,29.86,0,0,0,0.00
2013-7-19,92.7,80.0,72.5,0.0,0.0,0.0,0,0,100,29.92,29.80,0,0,0,0.00
2013-7-20,88.9,75.8,0.0,0.0,0.0,0.0,0,0,100,29.85,29.74,0,0,0,0.00
2013-7-21,90.7,74.2,0.0,0.0,0.0,0.0,0,0,100,29.82,29.75,0,0,0,1.30
2013-7-22,87.7,75.3,0.0,0.0,0.0,0.0,0,0,100,29.78,29.65,0,0,0,0.00
2013-7-23,94.3,78.7,68.6,0.0,0.0,0.0,0,0,100,29.67,29.56,0,0,0,0.00
2013-7-24,95.0,75.3,0.0,0.0,0.0,0.0,0,0,100,29.70,29.57,0,0,0,0.00
2013-7-25,86.2,73.3,62.8,0.0,0.0,0.0,0,0,100,29.86,29.67,0,0,0,0.00
2013-7-26,92.7,76.5,62.3,0.0,0.0,0.0,0,0,100,29.93,29.83,0,0,0,0.00
2013-7-27,73.4,68.8,66.1,0.0,0.0,0.0,0,0,100,29.86,29.75,0,0,0,2.40
2013-7-28,86.8,73.6,66.2,0.0,0.0,0.0,0,0,100,29.81,29.74,0,0,0,0.00
2013-7-29,92.5,73.7,0.0,0.0,0.0,0.0,0,0,100,29.98,29.81,0,0,0,0.02
2013-7-30,91.6,74.2,0.0,0.0,0.0,0.0,0,0,100,30.05,29.96,0,0,0,0.00
2013-7-31,85.0,73.4,67.0,0.0,0.0,0.0,0,0,100,29.97,29.81,0,0,0,0.18
2013-8-1,89.5,75.7,68.6,0.0,0.0,0.0,0,0,100,29.81,29.69,0,0,0,0.04
2013-8-2,92.5,76.2,0.0,0.0,0.0,0.0,0,0,100,29.85,29.75,0,0,0,0.00
2013-8-3,90.9,77.0,67.7,0.0,0.0,0.0,0,0,100,29.84,29.74,0,0,0,0.00
2013-8-4,89.3,76.7,68.0,0.0,0.0,0.0,0,0,100,29.85,29.75,0,0,0,0.00
2013-8-5,87.1,72.4,0.0,0.0,0.0,0.0,0,0,100,29.90,29.81,0,0,0,0.00
2013-8-6,77.0,69.5,61.6,0.0,0.0,0.0,0,0,100,29.88,29.81,0,0,0,1.32
2013-8-7,83.5,73.8,66.8,0.0,0.0,0.0,0,0,100,29.91,29.84,0,0,0,0.03
2013-8-8,85.0,75.0,68.8,0.0,0.0,0.0,0,0,100,29.89,29.82,0,0,0,0.19
2013-8-9,89.3,77.4,71.3,0.0,0.0,0.0,0,0,100,29.87,29.81,0,0,0,0.07
2013-8-10,90.9,73.3,69.8,0.0,0.0,0.0,0,0,100,29.92,29.85,0,0,0,0.99
2013-8-11,90.4,76.6,68.0,0.0,0.0,0.0,0,0,100,29.94,29.84,0,0,0,0.00
2013-8-12,94.3,78.9,68.9,0.0,0.0,0.0,0,0,100,29.88,29.77,0,0,0,1.04
2013-8-13,84.6,72.8,68.4,0.0,0.0,0.0,0,0,100,29.78,29.63,0,0,0,1.00
2013-8-14,71.6,67.0,64.8,0.0,0.0,0.0,0,0,100,29.81,29.68,0,0,0,0.02
2013-8-15,82.4,66.8,56.3,0.0,0.0,0.0,0,0,100,29.98,29.89,0,0,0,0.00
2013-8-16,72.4,62.2,53.5,0.0,0.0,0.0,0,0,100,29.98,29.91,0,0,0,0.00
2013-8-17,64.1,60.1,56.3,0.0,0.0,0.0,0,0,100,30.01,29.95,0,0,0,2.19
2013-8-18,77.2,66.4,62.1,0.0,0.0,0.0,0,0,100,30.03,29.93,0,0,0,0.50
2013-8-19,77.0,68.3,62.6,0.0,0.0,0.0,0,0,100,30.00,29.91,0,0,0,0.80
2013-8-20,85.3,71.5,0.0,0.0,0.0,0.0,0,0,100,30.01,29.92,0,0,0,0.03
2013-8-21,84.1,73.8,66.4,0.0,0.0,0.0,0,0,100,30.04,29.92,0,0,0,0.32
2013-8-22,88.6,74.7,67.5,0.0,0.0,0.0,0,0,100,29.96,29.82,0,0,0,0.00
2013-8-23,84.1,72.8,62.1,0.0,0.0,0.0,0,0,100,29.92,29.77,0,0,0,0.08
2013-8-24,85.0,70.9,58.5,0.0,0.0,0.0,0,0,100,30.11,29.91,0,0,0,0.00
2013-8-25,85.7,69.3,56.2,0.0,0.0,0.0,0,0,100,30.20,30.10,0,0,0,0.00
2013-8-26,86.8,69.1,52.4,0.0,0.0,0.0,0,0,100,30.13,29.93,0,0,0,0.00
2013-8-27,89.3,75.0,63.2,0.0,0.0,0.0,0,0,100,29.93,29.79,0,0,0,0.00
2013-8-28,84.6,75.7,66.1,0.0,0.0,0.0,0,0,100,29.82,29.71,0,0,0,0.00
2013-8-29,89.8,77.8,69.3,0.0,0.0,0.0,0,0,100,29.83,29.69,0,0,0,0.00
2013-8-30,89.8,76.0,64.4,0.0,0.0,0.0,0,0,100,29.89,29.76,0,0,0,0.00
2013-8-31,88.9,73.4,65.9,0.0,0.0,0.0,0,0,100,29.78,29.70,0,0,0,0.07
2013-9-1,87.3,71.7,66.1,0.0,0.0,0.0,0,0,100,29.72,29.62,0,0,0,1.91
2013-9-2,85.5,74.1,66.2,0.0,0.0,0.0,0,0,100,29.73,29.63,0,0,0,0.02
2013-9-3,92.2,77.6,66.4,0.0,0.0,0.0,0,0,100,29.79,29.63,0,0,0,0.00
2013-9-4,86.8,71.6,0.0,0.0,0.0,0.0,0,0,100,29.91,29.79,0,0,0,0.00
2013-9-5,88.4,73.2,60.3,0.0,0.0,0.0,0,0,100,29.93,29.86,0,0,0,0.00
2013-9-6,82.4,71.0,59.9,0.0,0.0,0.0,0,0,100,30.02,29.91,0,0,0,0.00
2013-9-7,82.4,67.8,56.3,0.0,0.0,0.0,0,0,100,29.95,29.79,0,0,0,0.00
2013-9-8,92.2,75.0,61.9,0.0,0.0,0.0,0,0,100,29.81,29.75,0,0,0,0.00
2013-9-9,89.5,74.9,63.9,0.0,0.0,0.0,0,0,100,29.97,29.81,0,0,0,0.00
2013-9-10,90.0,76.0,65.9,0.0,0.0,0.0,0,0,100,30.05,29.96,0,0,0,0.00
2013-9-11,92.7,76.0,0.0,0.0,0.0,0.0,0,0,100,30.02,29.88,0,0,0,0.00
2013-9-12,90.4,73.8,66.8,0.0,0.0,0.0,0,0,100,29.89,29.65,0,0,0,2.03
2013-9-13,82.4,70.6,60.3,0.0,0.0,0.0,0,0,100,29.74,29.60,0,0,0,0.00
2013-9-14,77.4,63.8,51.8,0.0,0.0,0.0,0,0,100,29.94,29.74,0,0,0,0.00
2013-9-15,83.7,64.6,48.1,0.0,0.0,0.0,0,0,100,30.04,29.93,0,0,0,0.00
2013-9-16,86.8,69.9,58.1,0.0,0.0,0.0,0,0,100,30.01,29.88,0,0,0,0.00
2013-9-17,79.4,64.1,0.0,0.0,0.0,0.0,0,0,100,30.14,30.01,0,0,0,0.00
2013-9-18,77.0,62.4,50.8,0.0,0.0,0.0,0,0,100,30.12,29.98,0,0,0,0.00
2013-9-19,76.5,64.6,54.5,0.0,0.0,0.0,0,0,100,30.00,29.88,0,0,0,0.00
2013-9-20,86.0,68.8,0.0,0.0,0.0,0.0,0,0,100,29.89,29.75,0,0,0,0.00
2013-9-21,74.3,66.6,61.6,0.0,0.0,0.0,0,0,100,29.76,29.53,0,0,0,1.67
2013-9-22,77.4,63.9,0.0,0.0,0.0,0.0,0,0,100,29.72,29.54,0,0,0,0.02
2013-9-23,77.9,62.7,52.0,0.0,0.0,0.0,0,0,100,29.86,29.71,0,0,0,0.00
2013-9-24,80.3,63.6,52.0,0.0,0.0,0.0,0,0,100,29.88,29.74,0,0,0,0.00
2013-9-25,69.7,59.8,51.1,0.0,0.0,0.0,0,0,100,29.75,29.68,0,0,0,0.00
2013-9-26,75.4,63.1,0.0,0.0,0.0,0.0,0,0,100,29.85,29.69,0,0,0,0.02
2013-9-27,79.2,62.0,49.7,0.0,0.0,0.0,0,0,100,29.98,29.84,0,0,0,0.00
2013-9-28,71.6,58.6,0.0,0.0,0.0,0.0,0,0,100,30.06,29.96,0,0,0,0.00
2013-9-29,77.4,59.0,0.0,0.0,0.0,0.0,0,0,100,29.97,29.83,0,0,0,0.00
2013-9-30,80.1,61.8,49.1,0.0,0.0,0.0,0,0,100,29.88,29.79,0,0,0,0.00
2013-10-1,84.1,66.6,53.5,0.0,0.0,0.0,0,0,100,29.91,29.83,0,0,0,0.00
2013-10-2,88.4,68.3,0.0,0.0,0.0,0.0,0,0,100,29.94,29.85,0,0,0,0.00
2013-10-3,90.0,70.5,56.9,0.0,0.0,0.0,0,0,100,29.93,29.85,0,0,0,0.00
2013-10-4,90.4,70.8,58.0,0.0,0.0,0.0,0,0,100,29.94,29.86,0,0,0,0.00
2013-10-5,94.3,73.8,59.4,0.0,0.0,0.0,0,0,100,29.92,29.83,0,0,0,0.00
2013-10-6,83.5,37.3,0.0,0.0,0.0,0.0,0,0,100,29.85,29.71,0,0,0,0.00
2013-10-7,0.0,0.0,0.0,0.0,0.0,0.0,0,0,100,29.81,29.61,0,0,0,0.00
2013-10-8,0.0,0.0,0.0,0.0,0.0,0.0,0,0,100,30.00,29.81,0,0,0,0.00
2013-10-9,0.0,0.0,0.0,0.0,0.0,0.0,0,0,100,30.00,29.91,0,0,0,0.00
2013-10-10,0.0,0.0,0.0,0.0,0.0,0.0,0,0,100,29.91,29.74,0,0,0,0.00
2013-10-11,0.0,0.0,0.0,0.0,0.0,0.0,0,0,100,29.75,29.72,0,0,0,0.00
2013-10-18,0.0,0.0,0.0,0.0,0.0,0.0,0,0,100,29.77,29.75,0,0,0,0.00
2013-10-19,0.0,0.0,0.0,0.0,0.0,0.0,0,0,100,29.75,29.62,0,0,0,0.00
2013-10-20,0.0,0.0,0.0,0.0,0.0,0.0,0,0,100,29.87,29.70,0,0,0,0.00
2013-10-31,0.0,0.0,0.0,0.0,0.0,0.0,0,0,100,29.75,29.63,0,0,0,0.00
2013-11-1,0.0,0.0,0.0,0.0,0.0,0.0,0,0,100,29.64,29.49,0,0,0,0.00
2013-12-7,0.0,0.0,0.0,0.0,0.0,0.0,0,0,100,30.21,30.19,0,0,0,0.00
2013-12-8,0.0,0.0,0.0,0.0,0.0,0.0,0,0,100,30.22,30.03,0,0,0,0.00
2013-12-9,0.0,0.0,0.0,0.0,0.0,0.0,0,0,100,30.04,29.82,0,0,0,0.00
2013-12-10,0.0,0.0,0.0,0.0,0.0,0.0,0,0,100,30.06,29.70,0,0,0,0.00
2013-12-11,0.0,0.0,0.0,0.0,0.0,0.0,0,0,100,30.20,30.04,0,0,0,0.00
2013-12-12,0.0,0.0,0.0,0.0,0.0,0.0,0,0,100,30.17,30.04,0,0,0,0.00
2013-12-13,0.0,0.0,0.0,0.0,0.0,0.0,0,0,100,30.12,30.08,0,0,0,0.00
2013-12-18,37.2,34.1,30.9,16.7,13.8,0.0,51,42,40,30.27,30.25,3,0,3,0.00
2013-12-19,62.7,45.7,31.0,28.9,22.6,13.7,57,41,27,30.32,30.20,15,2,16,0.00
2013-12-20,63.9,53.0,41.5,49.1,38.5,25.9,78,58,43,30.22,30.09,18,3,18,0.00
2013-12-21,69.9,59.7,49.7,60.7,53.3,46.4,89,80,66,30.12,29.97,19,3,19,0.00
2013-12-22,70.2,64.7,59.4,65.1,60.4,56.3,91,86,74,30.04,29.93,20,4,20,1.37
2013-12-23,62.7,55.4,38.8,59.5,51.0,30.8,90,85,69,30.16,29.95,14,3,14,0.97
2013-12-24,43.7,35.3,24.7,31.5,22.4,11.2,77,60,41,30.47,30.14,17,2,17,0.00
2013-12-25,39.4,26.7,18.6,15.0,10.7,7.7,67,52,33,30.56,30.39,8,1,8,0.00
2013-12-26,50.2,33.7,22.8,28.4,18.2,10.5,65,54,39,30.39,30.26,11,1,11,0.00
2013-12-27,51.8,36.7,23.4,23.7,19.4,15.8,80,52,31,30.48,30.37,6,0,6,0.00
2013-12-28,55.1,40.8,27.3,38.0,26.2,17.3,88,58,33,30.41,30.15,7,1,9,0.06
2013-12-29,54.8,43.9,39.5,47.5,39.3,35.2,90,84,70,30.16,29.72,11,2,11,0.91
2013-12-30,51.0,42.0,35.2,40.9,34.2,29.5,86,74,63,30.13,29.92,8,1,8,0.00
2013-12-31,49.2,38.3,29.5,33.1,25.8,18.6,89,63,37,30.36,30.11,11,1,13,0.00
2014-1-1,49.8,37.3,28.2,27.7,23.1,18.2,77,58,38,30.40,30.14,9,1,9,0.00
2014-1-2,43.4,38.3,34.1,37.9,32.2,25.1,90,79,66,30.14,29.62,15,1,15,0.37